Airfield :
LOGIN :

Register | Disclaimer

   EN    FR    IT 

 










Legend :    VFR   Marginal VFR   IFR   Intensive IFR   Very Intensive IFR
Visi :
Ceiling :
>= 8 km
>= 3000ft
5 to 8 km
1000 to 3000 ft
1500m to 5 km
500 to 1000 ft
800 to 1500m
200 to 500 ft
< 800m
< 200 ft
Symbols :   Thunderstorms  Fog  Heavy snow  Heavy precipitations  Wind > 20 kt
SIGMETs :     Misc.  Thunderstorms  Icing  Turbulence  Mountain Waves  Volcanic Ashes







- Airport Elevation : 157 ft
- IATA code : SXF


EDDB - Berlin Schönefeld

CURRENT METAR :
  • 180720Z 19011KT 9999 FEW029 BKN100 02/M00 Q0998 NOSIG

EXPIRED METARs :
  • 180650Z 20013KT 9999 FEW029 BKN150 02/M00 Q0999 NOSIG
  • 180620Z 21013KT 9999 FEW029 BKN150 02/M00 Q0999 NOSIG
  • 180550Z 21012KT 9999 BKN029 OVC130 02/M00 Q1000 NOSIG
  • 180520Z 21011KT 9999 BKN030 02/M00 Q1001 NOSIG
  • 180450Z 21012KT 9999 BKN028 02/00 Q1001 NOSIG

TAF TAF EDDB
Valid from the 18 at 06:00 until the 19 at 06:00 UTC


180500Z 1806/1906 21012KT 9999 SCT020 BKN030
BECMG 1808/1811 14010KT
TEMPO 1810/1813 2000 SNRA BKN004
BECMG 1812/1814 23015G25KT
BECMG 1815/1818 26020G35KT BKN010
TEMPO 1818/1822 28020G45KT 3500 -SHSNRA BKN008 BKN015CB
BECMG 1900/1903 28008KT
No reported NOTAMs for that airfield.
3 SIGMETs reported for the Bremen FIR (EDWW) :
 
Embedded thunderstorms
EDWW SIGMET 3 VALID 180712/180900 EDZH
EDWW BREMEN FIR EMBD TS OBS WI N5429 E00630 - N5415 E00754 - N5318 E00817 - N5314 E00714 - N5355 E00631 - N5429 E00630 TOP FL130 MOV E NC=
Severe icing
EDWW SIGMET 2 VALID 180600/180800 EDZH
EDWW BREMEN FIR SEV ICE FCST WI N5359 E00814 - N5122 E01027 - N5120 E00853 - N5207 E00820 - N5359 E00633 - N5359 E00814 4000FT/FL160 MOV E NC=
Embedded thunderstorms
EDWW SIGMET 1 VALID 180547/180700 EDZH
EDWW BREMEN FIR EMBD TS FCST WI N5358 E00805 - N5304 E00839 - N5248 E00704 - N5357 E00632 - N5358 E00805 TOP FL130 MOV E WKN=



MET'MAP, your aeronautical weather chart ! - Copyright ORBIFLY December 2007 - Disclaimer

ORBIFLY MET'MAP TEAM :

Programming & Development : Alexandra Zaïnal
Concept & Development : Baudouin d'Aumeries
Co-Development & Prog : Marc-Olivier Méhu
Technical & hardware support : Manuel Goepfert

Contact : metmap@orbifly.com




SOURCES & CREDITS :

   NOAA